Time;durP1;ratioP1;P1;durP2;ratioP2;P2;SDS_P1;SDS_P2;PMS_P1;PMS_P2;Temp;Humidity;BMP_temperature;BMP_pressure;BME280_temperature;BME280_humidity;BME280_pressure;Samples;Min_cycle;Max_cycle;Signal;HPM_P1;HPM_P2
2023/12/01 00:01:54;;;;;;;1.85;1.85;;;;;;;0.50;100.00;100419.28;10459795;28;20037;-71
2023/12/01 00:06:55;;;;;;;3.15;2.00;;;;;;;0.39;100.00;100416.78;10459505;28;20030;-71
2023/12/01 00:11:56;;;;;;;1.25;1.25;;;;;;;0.19;100.00;100426.59;10458941;28;20086;-71
2023/12/01 00:16:56;;;;;;;6.20;5.75;;;;;;;0.10;100.00;100441.63;10459737;28;20091;-72
2023/12/01 00:21:57;;;;;;;3.22;3.13;;;;;;;0.08;100.00;100440.91;10458379;28;20037;-71
2023/12/01 00:26:58;;;;;;;1.90;1.80;;;;;;;0.18;100.00;100430.25;10459098;28;20032;-71
2023/12/01 00:31:58;;;;;;;0.70;0.70;;;;;;;0.17;100.00;100440.06;10456695;28;20052;-71
2023/12/01 00:36:58;;;;;;;4.78;4.47;;;;;;;0.16;100.00;100454.38;10456150;28;20029;-71
2023/12/01 00:41:59;;;;;;;1.80;1.80;;;;;;;0.11;100.00;100445.97;10458279;28;20456;-71
2023/12/01 00:46:59;;;;;;;1.27;1.27;;;;;;;-0.03;100.00;100454.41;10458430;28;20037;-71
2023/12/01 00:51:59;;;;;;;1.20;1.20;;;;;;;-0.14;100.00;100466.00;10457966;28;20071;-71
2023/12/01 00:57:00;;;;;;;1.08;1.08;;;;;;;-0.32;100.00;100473.84;10456513;28;20060;-71
2023/12/01 01:02:01;;;;;;;0.82;0.82;;;;;;;-0.31;100.00;100472.00;10456998;28;20469;-71
2023/12/01 01:07:02;;;;;;;1.45;1.45;;;;;;;-0.32;100.00;100468.50;10456625;28;20048;-71
2023/12/01 01:12:03;;;;;;;3.95;2.45;;;;;;;-0.39;100.00;100477.16;10456951;28;20059;-71
2023/12/01 01:17:04;;;;;;;1.17;1.17;;;;;;;-0.42;100.00;100488.91;10456761;28;20043;-71
2023/12/01 01:22:04;;;;;;;2.25;2.15;;;;;;;-0.54;100.00;100492.69;10455826;28;20098;-71
2023/12/01 01:27:04;;;;;;;2.90;2.80;;;;;;;-0.64;100.00;100507.75;10455444;28;20063;-70
2023/12/01 01:32:05;;;;;;;2.22;2.15;;;;;;;-0.71;100.00;100502.97;10454293;28;20036;-70
2023/12/01 01:37:07;;;;;;;1.80;1.45;;;;;;;-0.64;100.00;100510.41;10454017;28;20532;-70
2023/12/01 01:42:07;;;;;;;0.90;0.90;;;;;;;-0.57;100.00;100509.75;10455890;28;20029;-70
2023/12/01 01:47:08;;;;;;;0.95;0.95;;;;;;;-0.52;100.00;100527.94;10453706;28;20036;-70
2023/12/01 01:52:08;;;;;;;1.45;1.40;;;;;;;-0.68;100.00;100525.78;10455107;28;20060;-70
2023/12/01 01:57:08;;;;;;;1.40;1.40;;;;;;;-0.56;100.00;100534.53;10438042;28;20087;-70
2023/12/01 02:02:09;;;;;;;2.63;2.22;;;;;;;-0.53;100.00;100536.91;10420410;28;20032;-69
2023/12/01 02:07:25;;;;;;;1.63;1.63;;;;;;;-0.63;100.00;100528.91;10453244;28;20073;-69
2023/12/01 02:12:25;;;;;;;1.02;1.02;;;;;;;-0.72;100.00;100529.72;10455178;28;20353;-69
2023/12/01 02:17:26;;;;;;;1.63;1.63;;;;;;;-0.77;100.00;100537.22;10454604;28;20041;-69
2023/12/01 02:22:27;;;;;;;1.42;1.42;;;;;;;-0.77;100.00;100540.72;10453692;28;20033;-69
2023/12/01 02:27:28;;;;;;;1.40;1.40;;;;;;;-0.79;100.00;100528.56;10454134;28;20144;-69
2023/12/01 02:32:28;;;;;;;4.03;2.85;;;;;;;-0.86;100.00;100552.19;10453801;28;20048;-69
2023/12/01 02:37:29;;;;;;;0.65;0.65;;;;;;;-0.95;100.00;100545.84;10454426;28;20350;-69
2023/12/01 02:42:29;;;;;;;1.20;1.20;;;;;;;-0.97;100.00;100553.09;10453813;28;20045;-69
2023/12/01 02:47:29;;;;;;;0.95;0.95;;;;;;;-0.95;100.00;100559.13;10453520;28;20026;-70
2023/12/01 02:52:30;;;;;;;2.58;2.47;;;;;;;-0.89;100.00;100547.13;10453510;28;20032;-69
2023/12/01 02:57:30;;;;;;;1.23;1.23;;;;;;;-1.01;100.00;100551.66;10453703;28;20514;-69
2023/12/01 03:02:30;;;;;;;1.70;1.67;;;;;;;-1.10;100.00;100543.66;10461675;28;20067;-70
2023/12/01 03:07:31;;;;;;;0.90;0.90;;;;;;;-1.14;100.00;100544.88;10461842;28;20033;-70
2023/12/01 03:12:32;;;;;;;6.40;3.83;;;;;;;-1.16;100.00;100547.66;10461146;28;20041;-70
2023/12/01 03:17:32;;;;;;;1.88;1.88;;;;;;;-1.18;100.00;100545.16;10460729;28;20044;-70
2023/12/01 03:22:33;;;;;;;6.72;4.07;;;;;;;-1.19;100.00;100546.09;10459979;28;20021;-70
2023/12/01 03:27:33;;;;;;;1.65;1.65;;;;;;;-1.11;100.00;100548.13;10459907;28;20052;-69
2023/12/01 03:32:33;;;;;;;1.40;1.40;;;;;;;-1.05;100.00;100541.44;10459129;28;20457;-70
2023/12/01 03:37:34;;;;;;;2.60;2.50;;;;;;;-1.04;100.00;100557.25;10459882;28;20072;-70
2023/12/01 03:42:36;;;;;;;5.53;4.72;;;;;;;-1.08;100.00;100557.66;10459292;28;20081;-69
2023/12/01 03:47:37;;;;;;;0.63;0.63;;;;;;;-1.13;100.00;100562.50;10460268;28;20494;-70
2023/12/01 03:52:42;;;;;;;1.40;1.40;;;;;;;-1.27;100.00;100577.81;10458559;28;20114;-72
2023/12/01 03:57:43;;;;;;;2.78;2.67;;;;;;;-1.37;100.00;100587.53;10458291;28;20082;-70
2023/12/01 04:02:44;;;;;;;1.17;1.17;;;;;;;-1.28;100.00;100589.38;10458751;28;20083;-70
2023/12/01 04:07:45;;;;;;;2.78;2.60;;;;;;;-1.47;100.00;100582.13;10458834;28;20506;-71
2023/12/01 04:12:46;;;;;;;0.90;0.90;;;;;;;-1.41;100.00;100586.06;10458327;28;20396;-70
2023/12/01 04:17:47;;;;;;;0.95;0.95;;;;;;;-1.43;100.00;100572.94;10457330;28;20033;-71
2023/12/01 04:22:52;;;;;;;1.52;1.52;;;;;;;-1.44;100.00;100594.28;10459396;28;20029;-71
2023/12/01 04:27:53;;;;;;;0.88;0.88;;;;;;;-1.53;100.00;100597.72;10458402;28;20033;-70
2023/12/01 04:32:54;;;;;;;1.33;1.33;;;;;;;-1.49;100.00;100596.50;10440752;28;20049;-70
2023/12/01 04:37:55;;;;;;;0.93;0.93;;;;;;;-1.42;100.00;100603.00;10457060;28;20099;-70
2023/12/01 04:42:56;;;;;;;0.80;0.80;;;;;;;-1.42;100.00;100624.22;10457120;28;20044;-70
2023/12/01 04:47:57;;;;;;;1.58;1.58;;;;;;;-1.41;100.00;100631.22;10455685;28;20082;-71
2023/12/01 04:52:58;;;;;;;0.80;0.80;;;;;;;-1.29;100.00;100634.69;10456723;28;20037;-71
2023/12/01 04:57:58;;;;;;;0.70;0.70;;;;;;;-1.26;100.00;100634.44;10455616;28;20376;-70
2023/12/01 05:03:00;;;;;;;1.88;1.88;;;;;;;-1.21;100.00;100641.06;10456480;28;20124;-71
2023/12/01 05:08:02;;;;;;;0.90;0.90;;;;;;;-1.11;100.00;100646.44;10455222;28;20059;-70
2023/12/01 05:13:04;;;;;;;0.65;0.65;;;;;;;-1.11;100.00;100648.25;10454565;28;20110;-71
2023/12/01 05:18:11;;;;;;;1.08;1.08;;;;;;;-1.14;100.00;100654.66;10455779;28;20033;-70
2023/12/01 05:23:12;;;;;;;3.60;2.78;;;;;;;-1.09;100.00;100659.59;10453739;28;20040;-70
2023/12/01 05:28:12;;;;;;;0.80;0.80;;;;;;;-1.04;100.00;100658.22;10455227;28;20040;-70
2023/12/01 05:33:12;;;;;;;1.75;1.75;;;;;;;-1.01;100.00;100673.94;10458398;28;20080;-72
2023/12/01 05:38:16;;;;;;;0.98;0.98;;;;;;;-1.02;100.00;100660.75;10455075;28;20037;-71
2023/12/01 05:43:16;;;;;;;2.75;2.65;;;;;;;-1.07;100.00;100673.59;10454620;28;20041;-71
2023/12/01 05:48:17;;;;;;;1.17;1.17;;;;;;;-1.02;100.00;100661.63;10454665;28;20522;-72
2023/12/01 05:53:17;;;;;;;3.15;1.88;;;;;;;-0.78;100.00;100674.63;10454505;28;20140;-70
2023/12/01 05:58:17;;;;;;;1.13;1.13;;;;;;;-0.73;100.00;100674.25;10455579;28;20396;-71
2023/12/01 06:03:19;;;;;;;1.00;1.00;;;;;;;-0.72;100.00;100679.44;10453438;28;20064;-71
2023/12/01 06:08:19;;;;;;;1.33;1.30;;;;;;;-0.69;100.00;100683.66;10454518;28;20479;-71
2023/12/01 06:13:19;;;;;;;5.60;5.25;;;;;;;-0.63;100.00;100685.81;10453709;28;20057;-70
2023/12/01 06:18:20;;;;;;;1.05;1.05;;;;;;;-0.63;100.00;100690.28;10454323;28;20457;-70
2023/12/01 06:23:20;;;;;;;2.03;2.03;;;;;;;-0.60;100.00;100695.34;10454474;28;20037;-71
2023/12/01 06:28:22;;;;;;;3.28;3.13;;;;;;;-0.72;100.00;100687.41;10451467;28;20489;-70
2023/12/01 06:33:23;;;;;;;1.73;1.63;;;;;;;-0.59;100.00;100710.31;10455931;28;20036;-70
2023/12/01 06:38:24;;;;;;;3.08;0.85;;;;;;;-0.48;100.00;100696.94;10463252;28;20031;-71
2023/12/01 06:43:24;;;;;;;0.70;0.70;;;;;;;-0.49;100.00;100701.41;10460693;28;20396;-70
2023/12/01 06:48:25;;;;;;;0.82;0.82;;;;;;;-0.53;100.00;100701.81;10461871;28;20353;-70
2023/12/01 06:53:26;;;;;;;1.70;1.70;;;;;;;-0.52;100.00;100696.34;10461281;28;20067;-70
2023/12/01 06:58:26;;;;;;;0.82;0.82;;;;;;;-0.41;100.00;100705.25;10460808;28;20037;-71
2023/12/01 07:03:29;;;;;;;1.60;1.60;;;;;;;-0.52;100.00;100720.28;10462908;28;20060;-71
2023/12/01 07:08:30;;;;;;;0.90;0.90;;;;;;;-0.47;100.00;100728.72;10470413;28;20411;-72
2023/12/01 07:13:30;;;;;;;0.80;0.80;;;;;;;-0.50;100.00;100728.16;10463511;28;20036;-72
2023/12/01 07:18:30;;;;;;;0.93;0.93;;;;;;;-0.36;100.00;100730.47;10460803;28;20041;-71
2023/12/01 07:23:31;;;;;;;3.15;2.97;;;;;;;-0.33;100.00;100735.53;10459769;28;20431;-70
2023/12/01 07:28:31;;;;;;;1.98;1.90;;;;;;;-0.28;100.00;100733.31;10459756;28;20129;-71
2023/12/01 07:33:32;;;;;;;1.90;1.90;;;;;;;-0.24;100.00;100734.75;10458615;28;20090;-72
2023/12/01 07:38:32;;;;;;;1.65;1.65;;;;;;;-0.29;100.00;100739.63;10459535;28;20045;-70
2023/12/01 07:43:33;;;;;;;1.02;1.02;;;;;;;-0.25;100.00;100743.72;10459868;28;20084;-71
2023/12/01 07:48:33;;;;;;;1.48;1.48;;;;;;;-0.22;100.00;100747.06;10458948;28;20032;-71
2023/12/01 07:53:33;;;;;;;4.43;4.20;;;;;;;-0.21;100.00;100741.63;10459324;28;20037;-70
2023/12/01 07:58:34;;;;;;;1.67;1.67;;;;;;;-0.09;100.00;100753.03;10440893;28;20059;-70
2023/12/01 08:03:34;;;;;;;0.90;0.90;;;;;;;-0.08;100.00;100749.41;10459346;28;20083;-71
2023/12/01 08:08:35;;;;;;;0.80;0.80;;;;;;;-0.04;100.00;100756.97;10458988;28;20566;-69
2023/12/01 08:13:35;;;;;;;0.85;0.85;;;;;;;-0.07;100.00;100757.22;10458396;28;20124;-70
2023/12/01 08:18:36;;;;;;;1.35;1.35;;;;;;;0.03;100.00;100759.09;10457326;28;20075;-70
2023/12/01 08:23:36;;;;;;;0.65;0.65;;;;;;;-0.09;100.00;100764.53;10457253;28;20036;-70
2023/12/01 08:28:37;;;;;;;2.47;2.38;;;;;;;0.01;100.00;100761.06;10457390;28;20594;-70
2023/12/01 08:33:37;;;;;;;0.80;0.80;;;;;;;-0.01;100.00;100761.19;10457728;28;20029;-70
2023/12/01 08:38:37;;;;;;;0.95;0.95;;;;;;;0.02;100.00;100758.25;10457922;28;20598;-70
2023/12/01 08:43:38;;;;;;;1.00;1.00;;;;;;;0.05;100.00;100768.66;10456513;28;20086;-70
2023/12/01 08:48:38;;;;;;;0.63;0.63;;;;;;;0.08;100.00;100771.03;10457042;28;20029;-70
2023/12/01 08:53:39;;;;;;;1.15;1.15;;;;;;;0.17;100.00;100764.09;10457223;28;20468;-71
2023/12/01 08:58:39;;;;;;;3.20;3.10;;;;;;;0.23;100.00;100772.38;10455976;28;20037;-71
2023/12/01 09:03:40;;;;;;;1.92;1.83;;;;;;;0.33;100.00;100782.22;10456958;28;20119;-71
2023/12/01 09:08:40;;;;;;;0.63;0.63;;;;;;;0.44;100.00;100777.63;10455577;28;20495;-71
2023/12/01 09:13:40;;;;;;;1.08;1.08;;;;;;;0.47;100.00;100793.34;10457405;28;20044;-71
2023/12/01 09:18:43;;;;;;;1.60;1.60;;;;;;;0.51;100.00;100798.41;10440523;28;20179;-70
2023/12/01 09:23:44;;;;;;;6.40;4.07;;;;;;;0.57;100.00;100804.03;10459451;28;20036;-71
2023/12/01 09:28:45;;;;;;;1.00;1.00;;;;;;;0.62;100.00;100796.50;10453982;28;20056;-70
2023/12/01 09:33:45;;;;;;;0.85;0.85;;;;;;;0.81;100.00;100805.53;10455452;28;20045;-70
2023/12/01 09:38:49;;;;;;;1.77;1.75;;;;;;;0.91;100.00;100811.72;10455662;28;20041;-71
2023/12/01 09:43:50;;;;;;;1.00;1.00;;;;;;;0.96;100.00;100812.16;10454991;28;20555;-70
2023/12/01 09:48:50;;;;;;;2.70;2.60;;;;;;;1.33;100.00;100817.66;10453970;28;20087;-66
2023/12/01 09:53:50;;;;;;;4.20;2.08;;;;;;;1.16;100.00;100829.03;10453655;28;20064;-71
2023/12/01 09:58:51;;;;;;;0.80;0.80;;;;;;;1.32;100.00;100823.16;10455255;28;20378;-72
2023/12/01 10:03:51;;;;;;;3.05;2.25;;;;;;;1.43;100.00;100830.16;10453719;28;20432;-71
2023/12/01 10:08:52;;;;;;;2.30;2.28;;;;;;;1.27;100.00;100818.22;10435653;28;20053;-70
2023/12/01 10:13:52;;;;;;;1.00;1.00;;;;;;;1.24;100.00;100822.97;10454117;28;20128;-70
2023/12/01 10:18:59;;;;;;;1.08;1.08;;;;;;;1.30;100.00;100833.09;10453965;28;20037;-71
2023/12/01 10:24:01;;;;;;;0.93;0.93;;;;;;;1.24;100.00;100833.66;10452638;28;20036;-71
2023/12/01 10:29:01;;;;;;;1.30;1.30;;;;;;;2.31;100.00;100831.72;10435616;28;20071;-69
2023/12/01 10:34:01;;;;;;;0.60;0.60;;;;;;;2.71;100.00;100825.22;10453750;28;20041;-69
2023/12/01 10:39:03;;;;;;;0.80;0.80;;;;;;;2.83;100.00;100826.72;10435863;28;20048;-72
2023/12/01 10:44:03;;;;;;;4.15;3.95;;;;;;;2.96;100.00;100819.16;10451699;28;20480;-72
2023/12/01 10:49:04;;;;;;;1.00;1.00;;;;;;;2.96;100.00;100827.19;10451643;28;20029;-72
2023/12/01 10:54:04;;;;;;;1.80;1.70;;;;;;;2.05;100.00;100827.00;10435490;28;20029;-71
2023/12/01 10:59:05;;;;;;;1.35;1.35;;;;;;;1.68;100.00;100820.75;10452980;28;20116;-71
2023/12/01 11:04:06;;;;;;;1.45;1.45;;;;;;;1.48;100.00;100834.09;10451197;28;20035;-71
2023/12/01 11:09:18;;;;;;;0.90;0.90;;;;;;;1.33;100.00;100819.50;10435031;28;20393;-70
2023/12/01 11:14:20;;;;;;;0.73;0.73;;;;;;;1.17;100.00;100822.69;10436146;28;20037;-71
2023/12/01 11:19:22;;;;;;;3.42;3.30;;;;;;;1.26;100.00;100834.38;10453975;28;20044;-70
2023/12/01 11:24:24;;;;;;;1.20;1.20;;;;;;;1.38;100.00;100826.09;10460319;28;20100;-70
2023/12/01 11:29:35;;;;;;;2.03;2.03;;;;;;;1.35;100.00;100822.88;10460161;28;20080;-70
2023/12/01 11:34:35;;;;;;;1.10;1.10;;;;;;;1.58;100.00;100826.09;10429434;28;20056;-70
2023/12/01 11:39:36;;;;;;;1.13;1.13;;;;;;;2.00;100.00;100825.75;10461288;28;20036;-71
2023/12/01 11:44:40;;;;;;;1.10;1.10;;;;;;;1.93;100.00;100833.50;10463806;28;20050;-70
2023/12/01 11:49:43;;;;;;;0.80;0.80;;;;;;;2.81;100.00;100826.03;10460397;28;20037;-71
2023/12/01 11:54:43;;;;;;;0.82;0.82;;;;;;;3.60;100.00;100816.44;10460146;28;20029;-70
2023/12/01 11:59:44;;;;;;;0.90;0.90;;;;;;;4.19;100.00;100817.56;10459347;28;20472;-71
2023/12/01 12:04:48;;;;;;;2.40;2.35;;;;;;;4.43;100.00;100830.25;10441863;28;20045;-71
2023/12/01 12:09:48;;;;;;;1.23;1.23;;;;;;;4.03;100.00;100829.03;10458304;28;20040;-71
2023/12/01 12:14:51;;;;;;;0.80;0.80;;;;;;;3.06;100.00;100834.31;10460049;28;20135;-71
2023/12/01 12:19:52;;;;;;;2.42;2.25;;;;;;;3.58;100.00;100831.84;10458627;28;20445;-71
2023/12/01 12:24:52;;;;;;;0.90;0.90;;;;;;;3.78;100.00;100836.03;10458165;28;20489;-71
2023/12/01 12:29:53;;;;;;;1.30;1.30;;;;;;;3.81;100.00;100835.72;10461407;28;20132;-71
2023/12/01 12:34:53;;;;;;;2.47;2.38;;;;;;;3.72;100.00;100831.28;10461095;28;20469;-71
2023/12/01 12:39:56;;;;;;;0.77;0.77;;;;;;;3.82;100.00;100828.53;10459863;28;20488;-70
2023/12/01 12:44:57;;;;;;;0.98;0.98;;;;;;;3.65;100.00;100831.06;10459261;28;20036;-71
2023/12/01 12:49:57;;;;;;;0.82;0.82;;;;;;;3.50;100.00;100829.94;10458198;28;20112;-70
2023/12/01 12:54:58;;;;;;;0.75;0.75;;;;;;;3.16;100.00;100832.41;10457120;28;20041;-71
2023/12/01 12:59:58;;;;;;;1.70;1.70;;;;;;;2.86;100.00;100838.94;10458266;28;20392;-70
2023/12/01 13:04:59;;;;;;;0.70;0.70;;;;;;;2.60;100.00;100828.09;10462655;28;20033;-71
2023/12/01 13:09:59;;;;;;;0.90;0.90;;;;;;;2.42;100.00;100831.53;10460711;28;20041;-71
2023/12/01 13:14:59;;;;;;;0.90;0.88;;;;;;;2.28;100.00;100834.69;10461005;28;20040;-72
2023/12/01 13:20:00;;;;;;;0.70;0.70;;;;;;;2.36;100.00;100828.59;10458644;28;20076;-72
2023/12/01 13:25:02;;;;;;;0.70;0.70;;;;;;;2.12;100.00;100827.28;10459293;28;20029;-71
2023/12/01 13:30:03;;;;;;;0.80;0.80;;;;;;;2.18;100.00;100834.72;10459397;28;20108;-73
2023/12/01 13:35:04;;;;;;;0.60;0.60;;;;;;;1.87;100.00;100826.06;10458439;28;20081;-72
2023/12/01 13:40:09;;;;;;;1.08;1.08;;;;;;;1.76;100.00;100826.22;10458072;28;20127;-73
2023/12/01 13:45:10;;;;;;;0.88;0.88;;;;;;;1.77;100.00;100830.56;10455094;28;20032;-71
2023/12/01 13:50:10;;;;;;;0.80;0.80;;;;;;;1.85;100.00;100823.56;10457444;28;20123;-73
2023/12/01 13:55:10;;;;;;;0.60;0.60;;;;;;;1.77;100.00;100822.56;10439237;28;20106;-70
2023/12/01 14:00:15;;;;;;;0.70;0.70;;;;;;;1.63;100.00;100807.84;10457018;28;20041;-71
2023/12/01 14:05:17;;;;;;;2.30;2.20;;;;;;;1.48;100.00;100815.41;10455877;28;20079;-71
2023/12/01 14:10:18;;;;;;;3.38;2.58;;;;;;;1.42;100.00;100815.97;10454359;28;20075;-73
2023/12/01 14:15:18;;;;;;;0.80;0.80;;;;;;;1.54;100.00;100822.03;10456158;28;20035;-73
2023/12/01 14:20:20;;;;;;;1.10;1.10;;;;;;;1.62;100.00;100819.47;10454608;28;20495;-71
2023/12/01 14:25:20;;;;;;;1.27;1.25;;;;;;;1.47;100.00;100821.75;10456036;28;20037;-72
2023/12/01 14:30:20;;;;;;;2.50;2.38;;;;;;;1.58;100.00;100826.94;10455197;28;20119;-72
2023/12/01 14:35:21;;;;;;;0.60;0.60;;;;;;;1.52;100.00;100829.31;10456690;28;20041;-73
2023/12/01 14:40:22;;;;;;;0.70;0.70;;;;;;;1.41;100.00;100832.16;10457851;28;20049;-72
2023/12/01 14:45:24;;;;;;;2.80;2.55;;;;;;;1.27;100.00;100836.88;10458892;28;20048;-72
2023/12/01 14:50:25;;;;;;;0.60;0.60;;;;;;;1.11;100.00;100833.91;10457221;28;20029;-72
2023/12/01 14:55:25;;;;;;;1.83;1.73;;;;;;;0.97;100.00;100840.50;10463004;28;20076;-73
2023/12/01 15:00:26;;;;;;;19.40;11.55;;;;;;;0.76;100.00;100837.91;10468311;28;20504;-73
2023/12/01 15:05:27;;;;;;;16.63;10.70;;;;;;;0.66;100.00;100848.53;10465642;28;20036;-73
2023/12/01 15:10:27;;;;;;;15.95;10.23;;;;;;;0.47;100.00;100851.13;10464345;28;20116;-71
2023/12/01 15:15:28;;;;;;;26.17;12.10;;;;;;;0.37;100.00;100855.56;10465087;28;20471;-72
2023/12/01 15:20:28;;;;;;;17.10;13.02;;;;;;;0.23;100.00;100860.25;10466309;28;20400;-72
2023/12/01 15:25:28;;;;;;;22.38;11.95;;;;;;;0.05;100.00;100866.31;10466282;28;20036;-71
2023/12/01 15:30:29;;;;;;;20.85;10.23;;;;;;;-0.15;100.00;100876.84;10460915;28;20482;-71
2023/12/01 15:35:29;;;;;;;34.95;13.88;;;;;;;-0.32;100.00;100880.91;10460379;28;20441;-71
2023/12/01 15:40:30;;;;;;;23.77;12.25;;;;;;;-0.49;100.00;100892.09;10459969;28;20036;-72
2023/12/01 15:45:30;;;;;;;15.23;11.20;;;;;;;-0.68;100.00;100884.78;10460807;28;20029;-72
2023/12/01 15:50:31;;;;;;;21.23;12.45;;;;;;;-0.67;100.00;100886.47;10460220;28;20437;-72
2023/12/01 15:55:32;;;;;;;17.77;9.45;;;;;;;-0.72;100.00;100889.50;10460801;28;20032;-71
2023/12/01 16:00:32;;;;;;;17.13;12.52;;;;;;;-0.78;100.00;100900.63;10459826;28;20067;-72
2023/12/01 16:05:32;;;;;;;23.67;11.88;;;;;;;-0.77;100.00;100909.44;10459280;28;20419;-72
2023/12/01 16:10:33;;;;;;;22.92;13.40;;;;;;;-0.86;100.00;100912.84;10458036;28;20032;-73
2023/12/01 16:15:33;;;;;;;19.80;12.85;;;;;;;-1.01;100.00;100913.13;10458541;28;20037;-71
2023/12/01 16:20:34;;;;;;;22.10;12.98;;;;;;;-1.10;100.00;100915.66;10459502;28;20041;-71
2023/12/01 16:25:36;;;;;;;25.05;15.80;;;;;;;-1.05;100.00;100921.47;10456793;28;20476;-71
2023/12/01 16:30:36;;;;;;;17.60;12.95;;;;;;;-1.08;100.00;100925.22;10439953;28;20061;-73
2023/12/01 16:35:37;;;;;;;22.17;12.27;;;;;;;-1.13;100.00;100927.38;10459354;28;20045;-72
2023/12/01 16:40:37;;;;;;;21.88;12.55;;;;;;;-1.15;100.00;100928.47;10457512;28;20051;-73
2023/12/01 16:45:38;;;;;;;28.80;14.15;;;;;;;-1.22;100.00;100938.72;10457309;28;20033;-72
2023/12/01 16:50:42;;;;;;;23.73;14.25;;;;;;;-1.30;100.00;100941.16;10456477;28;20041;-72
2023/12/01 16:55:42;;;;;;;22.98;15.68;;;;;;;-1.35;100.00;100936.19;10458523;28;20036;-72
2023/12/01 17:00:43;;;;;;;27.15;17.17;;;;;;;-1.42;100.00;100942.94;10439376;28;20100;-71
2023/12/01 17:05:43;;;;;;;15.30;12.77;;;;;;;-1.52;100.00;100947.28;10456607;28;20063;-71
2023/12/01 17:10:44;;;;;;;29.40;15.98;;;;;;;-1.43;100.00;100963.34;10455417;28;20033;-71
2023/12/01 17:15:44;;;;;;;29.70;17.83;;;;;;;-1.47;100.00;100971.66;10455275;28;20040;-71
2023/12/01 17:20:45;;;;;;;21.67;14.98;;;;;;;-1.67;100.00;100974.03;10455709;28;20029;-72
2023/12/01 17:25:45;;;;;;;32.92;18.73;;;;;;;-1.30;100.00;100981.84;10456518;28;20064;-72
2023/12/01 17:30:46;;;;;;;28.95;16.88;;;;;;;-0.99;100.00;100977.66;10456026;28;20389;-73
2023/12/01 17:35:46;;;;;;;33.70;19.05;;;;;;;-1.06;100.00;100976.41;10455709;28;20469;-71
2023/12/01 17:40:47;;;;;;;28.65;19.10;;;;;;;-1.11;100.00;100975.09;10456164;28;20520;-71
2023/12/01 17:45:47;;;;;;;29.85;20.15;;;;;;;-1.20;100.00;100974.00;10455985;28;20047;-71
2023/12/01 17:50:48;;;;;;;36.55;19.90;;;;;;;-1.23;100.00;100996.34;10454023;28;20465;-71
2023/12/01 17:55:48;;;;;;;32.50;19.02;;;;;;;-1.27;100.00;100991.41;10456255;28;20041;-71
2023/12/01 18:00:49;;;;;;;36.03;19.10;;;;;;;-1.38;100.00;100994.03;10453901;28;20135;-72
2023/12/01 18:05:49;;;;;;;40.38;21.38;;;;;;;-1.52;100.00;100995.94;10455027;28;20127;-70
2023/12/01 18:10:50;;;;;;;43.97;20.77;;;;;;;-1.48;100.00;100992.06;10456027;28;20421;-72
2023/12/01 18:15:50;;;;;;;33.72;20.02;;;;;;;-1.58;100.00;101001.69;10454908;28;20514;-72
2023/12/01 18:20:51;;;;;;;39.25;21.90;;;;;;;-1.71;100.00;100985.84;10437101;28;20079;-74
2023/12/01 18:25:51;;;;;;;33.28;20.48;;;;;;;-1.78;100.00;101003.22;10455234;28;20436;-72
2023/12/01 18:30:52;;;;;;;30.73;16.05;;;;;;;-1.97;100.00;100997.59;10466543;28;20088;-72
2023/12/01 18:35:52;;;;;;;46.88;19.80;;;;;;;-2.02;100.00;101013.00;10467830;28;20036;-72
2023/12/01 18:40:53;;;;;;;33.42;20.33;;;;;;;-2.07;100.00;101020.44;10466956;28;20124;-72
2023/12/01 18:45:54;;;;;;;35.95;20.92;;;;;;;-2.10;100.00;101013.59;10468377;28;20178;-71
2023/12/01 18:50:54;;;;;;;42.45;24.25;;;;;;;-2.17;100.00;101026.44;10468126;28;20056;-73
2023/12/01 18:55:55;;;;;;;40.72;20.48;;;;;;;-2.24;100.00;101024.34;10465931;28;20032;-73
2023/12/01 19:00:56;;;;;;;31.65;13.75;;;;;;;-2.40;100.00;101021.94;10466610;28;20149;-72
2023/12/01 19:05:56;;;;;;;26.90;18.75;;;;;;;-2.43;100.00;101022.19;10450209;28;20489;-73
2023/12/01 19:10:57;;;;;;;38.03;19.35;;;;;;;-2.40;100.00;101030.75;10467100;28;20037;-74
2023/12/01 19:15:58;;;;;;;26.65;15.98;;;;;;;-2.48;100.00;101038.44;10466918;28;20094;-72
2023/12/01 19:20:58;;;;;;;33.55;17.25;;;;;;;-2.44;100.00;101034.59;10467757;28;20094;-72
2023/12/01 19:25:59;;;;;;;30.23;18.20;;;;;;;-2.46;100.00;101038.31;10466253;28;20037;-74
2023/12/01 19:30:59;;;;;;;43.55;23.45;;;;;;;-2.49;100.00;101054.44;10468814;28;20132;-73
2023/12/01 19:36:03;;;;;;;35.58;20.48;;;;;;;-2.49;100.00;101054.44;10467686;28;20036;-73
2023/12/01 19:41:04;;;;;;;39.53;19.80;;;;;;;-2.57;100.00;101039.94;10445630;28;20059;-73
2023/12/01 19:46:09;;;;;;;33.30;20.77;;;;;;;-2.64;100.00;101054.59;10458826;28;20103;-77
2023/12/01 19:51:10;;;;;;;35.20;22.25;;;;;;;-2.86;100.00;101043.81;10460122;28;20030;-76
2023/12/01 19:56:11;;;;;;;43.95;18.48;;;;;;;-2.86;100.00;101060.53;10458549;28;20029;-75
2023/12/01 20:01:11;;;;;;;30.83;17.95;;;;;;;-2.95;100.00;101044.44;10459724;28;20093;-76
2023/12/01 20:06:12;;;;;;;37.97;20.05;;;;;;;-2.92;100.00;101063.63;10459123;28;20060;-75
2023/12/01 20:11:12;;;;;;;45.63;22.48;;;;;;;-2.85;100.00;101069.34;10441958;28;20137;-73
2023/12/01 20:16:13;;;;;;;38.10;21.58;;;;;;;-2.83;100.00;101072.75;10459272;28;20460;-75
2023/12/01 20:21:13;;;;;;;37.05;21.85;;;;;;;-2.91;100.00;101057.34;10442956;28;20076;-73
2023/12/01 20:26:14;;;;;;;35.92;19.13;;;;;;;-2.87;100.00;101065.94;10458696;28;20037;-74
2023/12/01 20:31:14;;;;;;;30.83;17.50;;;;;;;-2.96;100.00;101056.00;10458845;28;20085;-72
2023/12/01 20:36:14;;;;;;;40.63;18.85;;;;;;;-3.05;100.00;101060.97;10456768;28;20536;-72
2023/12/01 20:41:15;;;;;;;29.65;17.33;;;;;;;-3.09;100.00;101061.31;10458029;28;20112;-72
2023/12/01 20:46:16;;;;;;;33.20;18.40;;;;;;;-3.16;100.00;101063.53;10440542;28;20116;-72
2023/12/01 20:51:16;;;;;;;48.83;22.70;;;;;;;-3.23;100.00;101048.13;10439322;28;20429;-74
2023/12/01 20:56:17;;;;;;;40.65;21.42;;;;;;;-3.12;100.00;101054.41;10458186;28;20037;-73
2023/12/01 21:01:17;;;;;;;39.10;18.92;;;;;;;-3.11;100.00;101060.53;10441030;28;20032;-71
2023/12/01 21:06:17;;;;;;;39.20;20.20;;;;;;;-3.16;100.00;101057.34;10455480;28;20546;-72
2023/12/01 21:11:18;;;;;;;46.22;25.40;;;;;;;-3.08;100.00;101065.63;10457798;28;20044;-73
2023/12/01 21:16:18;;;;;;;32.97;20.30;;;;;;;-3.13;100.00;101057.16;10456768;28;20036;-73
2023/12/01 21:21:19;;;;;;;33.10;19.85;;;;;;;-3.21;100.00;101062.13;10456100;28;20056;-72
2023/12/01 21:26:19;;;;;;;35.50;22.20;;;;;;;-3.22;100.00;101063.94;10456682;28;20033;-72
2023/12/01 21:31:20;;;;;;;33.97;21.17;;;;;;;-3.21;100.00;101068.28;10455876;28;20140;-73
2023/12/01 21:36:20;;;;;;;40.20;20.70;;;;;;;-3.32;100.00;101054.91;10437720;28;20175;-73
2023/12/01 21:41:23;;;;;;;36.35;18.75;;;;;;;-3.28;100.00;101062.56;10456280;28;20086;-74
2023/12/01 21:46:23;;;;;;;33.65;20.75;;;;;;;-3.29;100.00;101070.59;10454508;28;20397;-72
2023/12/01 21:51:24;;;;;;;43.63;24.10;;;;;;;-3.28;100.00;101070.50;10437612;28;20025;-73
2023/12/01 21:56:24;;;;;;;44.10;25.13;;;;;;;-3.30;100.00;101071.56;10455400;28;20033;-73
2023/12/01 22:01:24;;;;;;;40.47;23.25;;;;;;;-3.37;100.00;101065.81;10453251;28;20449;-71
2023/12/01 22:06:25;;;;;;;42.45;22.00;;;;;;;-3.48;100.00;101070.13;10454236;28;20024;-73
2023/12/01 22:11:25;;;;;;;37.00;21.02;;;;;;;-3.50;100.00;101072.91;10437195;28;20071;-73
2023/12/01 22:16:28;;;;;;;34.47;19.88;;;;;;;-3.57;100.00;101087.50;10455558;28;20029;-74
2023/12/01 22:21:30;;;;;;;45.28;22.90;;;;;;;-3.61;100.00;101088.63;10454604;28;20064;-74
2023/12/01 22:26:30;;;;;;;39.15;22.85;;;;;;;-3.49;100.00;101101.06;10437206;28;20024;-74
2023/12/01 22:31:31;;;;;;;35.22;21.13;;;;;;;-3.60;100.00;101111.53;10452411;28;20111;-73
2023/12/01 22:36:31;;;;;;;36.47;19.95;;;;;;;-3.77;100.00;101102.03;10453768;28;20039;-72
2023/12/01 22:41:31;;;;;;;32.13;20.63;;;;;;;-3.85;100.00;101110.47;10455345;28;20093;-72